sensor_id;sensor_type;location;lat;lon;timestamp;P1;durP1;ratioP1;P2;durP2;ratioP2
2039;SDS011;1025;42.686;23.350;2023-03-05T00:01:31;21.23;;;18.80;;
2039;SDS011;1025;42.686;23.350;2023-03-05T00:03:59;21.10;;;17.30;;
2039;SDS011;1025;42.686;23.350;2023-03-05T00:06:26;21.07;;;16.63;;
2039;SDS011;1025;42.686;23.350;2023-03-05T00:08:53;22.87;;;16.77;;
2039;SDS011;1025;42.686;23.350;2023-03-05T00:11:22;26.57;;;16.70;;
2039;SDS011;1025;42.686;23.350;2023-03-05T00:13:50;19.33;;;15.17;;
2039;SDS011;1025;42.686;23.350;2023-03-05T00:16:18;19.80;;;17.30;;
2039;SDS011;1025;42.686;23.350;2023-03-05T00:18:45;20.27;;;15.83;;
2039;SDS011;1025;42.686;23.350;2023-03-05T00:21:16;25.83;;;18.30;;
2039;SDS011;1025;42.686;23.350;2023-03-05T00:23:43;25.37;;;17.90;;
2039;SDS011;1025;42.686;23.350;2023-03-05T00:26:09;19.43;;;15.60;;
2039;SDS011;1025;42.686;23.350;2023-03-05T00:28:36;21.00;;;15.80;;
2039;SDS011;1025;42.686;23.350;2023-03-05T00:31:03;22.57;;;16.30;;
2039;SDS011;1025;42.686;23.350;2023-03-05T00:33:31;23.80;;;16.13;;
2039;SDS011;1025;42.686;23.350;2023-03-05T00:35:57;19.97;;;15.37;;
2039;SDS011;1025;42.686;23.350;2023-03-05T00:38:26;17.83;;;14.83;;
2039;SDS011;1025;42.686;23.350;2023-03-05T00:40:53;22.33;;;15.93;;
2039;SDS011;1025;42.686;23.350;2023-03-05T00:43:19;22.57;;;16.33;;
2039;SDS011;1025;42.686;23.350;2023-03-05T00:45:46;28.33;;;15.63;;
2039;SDS011;1025;42.686;23.350;2023-03-05T00:48:12;20.60;;;15.70;;
2039;SDS011;1025;42.686;23.350;2023-03-05T00:50:40;25.73;;;16.30;;
2039;SDS011;1025;42.686;23.350;2023-03-05T00:53:07;26.50;;;15.93;;
2039;SDS011;1025;42.686;23.350;2023-03-05T00:55:33;23.27;;;16.00;;
2039;SDS011;1025;42.686;23.350;2023-03-05T00:58:00;20.93;;;14.60;;
2039;SDS011;1025;42.686;23.350;2023-03-05T01:00:26;18.03;;;15.10;;
2039;SDS011;1025;42.686;23.350;2023-03-05T01:02:53;33.03;;;18.20;;
2039;SDS011;1025;42.686;23.350;2023-03-05T01:05:19;23.10;;;16.33;;
2039;SDS011;1025;42.686;23.350;2023-03-05T01:07:48;27.73;;;16.47;;
2039;SDS011;1025;42.686;23.350;2023-03-05T01:10:17;20.23;;;15.20;;
2039;SDS011;1025;42.686;23.350;2023-03-05T01:12:43;17.40;;;14.07;;
2039;SDS011;1025;42.686;23.350;2023-03-05T01:15:10;20.43;;;15.47;;
2039;SDS011;1025;42.686;23.350;2023-03-05T01:17:36;18.30;;;14.07;;
2039;SDS011;1025;42.686;23.350;2023-03-05T01:20:04;19.77;;;16.10;;
2039;SDS011;1025;42.686;23.350;2023-03-05T01:22:31;16.87;;;14.30;;
2039;SDS011;1025;42.686;23.350;2023-03-05T01:24:59;20.83;;;15.27;;
2039;SDS011;1025;42.686;23.350;2023-03-05T01:27:25;18.43;;;13.63;;
2039;SDS011;1025;42.686;23.350;2023-03-05T01:29:52;27.07;;;14.97;;
2039;SDS011;1025;42.686;23.350;2023-03-05T01:32:18;22.67;;;15.30;;
2039;SDS011;1025;42.686;23.350;2023-03-05T01:34:45;19.50;;;13.57;;
2039;SDS011;1025;42.686;23.350;2023-03-05T01:37:11;18.80;;;14.97;;
2039;SDS011;1025;42.686;23.350;2023-03-05T01:39:38;17.20;;;14.43;;
2039;SDS011;1025;42.686;23.350;2023-03-05T01:42:06;21.13;;;15.63;;
2039;SDS011;1025;42.686;23.350;2023-03-05T01:44:33;22.07;;;16.80;;
2039;SDS011;1025;42.686;23.350;2023-03-05T01:46:59;24.37;;;15.10;;
2039;SDS011;1025;42.686;23.350;2023-03-05T01:49:27;18.17;;;14.17;;
2039;SDS011;1025;42.686;23.350;2023-03-05T01:51:55;19.60;;;15.87;;
2039;SDS011;1025;42.686;23.350;2023-03-05T01:54:23;20.97;;;14.53;;
2039;SDS011;1025;42.686;23.350;2023-03-05T01:56:51;18.57;;;14.30;;
2039;SDS011;1025;42.686;23.350;2023-03-05T01:59:22;16.83;;;15.07;;
2039;SDS011;1025;42.686;23.350;2023-03-05T02:01:49;22.27;;;16.00;;
2039;SDS011;1025;42.686;23.350;2023-03-05T02:04:18;20.00;;;14.50;;
2039;SDS011;1025;42.686;23.350;2023-03-05T02:06:46;18.93;;;14.10;;
2039;SDS011;1025;42.686;23.350;2023-03-05T02:09:14;21.83;;;17.83;;
2039;SDS011;1025;42.686;23.350;2023-03-05T02:11:41;20.53;;;14.43;;
2039;SDS011;1025;42.686;23.350;2023-03-05T02:14:08;17.50;;;13.43;;
2039;SDS011;1025;42.686;23.350;2023-03-05T02:16:36;24.03;;;16.20;;
2039;SDS011;1025;42.686;23.350;2023-03-05T02:19:03;25.23;;;15.43;;
2039;SDS011;1025;42.686;23.350;2023-03-05T02:21:37;20.13;;;15.70;;
2039;SDS011;1025;42.686;23.350;2023-03-05T02:24:04;18.13;;;13.97;;
2039;SDS011;1025;42.686;23.350;2023-03-05T02:26:31;16.70;;;13.70;;
2039;SDS011;1025;42.686;23.350;2023-03-05T02:28:58;19.33;;;13.80;;
2039;SDS011;1025;42.686;23.350;2023-03-05T02:31:26;17.10;;;14.20;;
2039;SDS011;1025;42.686;23.350;2023-03-05T02:33:53;17.93;;;13.67;;
2039;SDS011;1025;42.686;23.350;2023-03-05T02:36:20;22.77;;;15.00;;
2039;SDS011;1025;42.686;23.350;2023-03-05T02:38:48;22.77;;;16.70;;
2039;SDS011;1025;42.686;23.350;2023-03-05T02:41:17;20.17;;;14.10;;
2039;SDS011;1025;42.686;23.350;2023-03-05T02:43:43;18.30;;;12.33;;
2039;SDS011;1025;42.686;23.350;2023-03-05T02:46:10;20.47;;;16.40;;
2039;SDS011;1025;42.686;23.350;2023-03-05T02:48:36;22.27;;;13.50;;
2039;SDS011;1025;42.686;23.350;2023-03-05T02:51:03;20.17;;;16.20;;
2039;SDS011;1025;42.686;23.350;2023-03-05T02:53:30;19.97;;;14.17;;
2039;SDS011;1025;42.686;23.350;2023-03-05T02:55:58;29.30;;;14.97;;
2039;SDS011;1025;42.686;23.350;2023-03-05T02:58:25;25.57;;;13.87;;
2039;SDS011;1025;42.686;23.350;2023-03-05T03:00:51;22.67;;;15.33;;
2039;SDS011;1025;42.686;23.350;2023-03-05T03:03:18;20.63;;;15.63;;
2039;SDS011;1025;42.686;23.350;2023-03-05T03:05:44;22.00;;;15.47;;
2039;SDS011;1025;42.686;23.350;2023-03-05T03:08:11;21.97;;;16.87;;
2039;SDS011;1025;42.686;23.350;2023-03-05T03:10:39;19.20;;;15.97;;
2039;SDS011;1025;42.686;23.350;2023-03-05T03:13:07;22.07;;;16.40;;
2039;SDS011;1025;42.686;23.350;2023-03-05T03:15:34;26.73;;;18.10;;
2039;SDS011;1025;42.686;23.350;2023-03-05T03:18:02;26.30;;;16.77;;
2039;SDS011;1025;42.686;23.350;2023-03-05T03:20:28;21.33;;;18.17;;
2039;SDS011;1025;42.686;23.350;2023-03-05T03:22:55;28.40;;;18.40;;
2039;SDS011;1025;42.686;23.350;2023-03-05T03:25:22;21.47;;;16.03;;
2039;SDS011;1025;42.686;23.350;2023-03-05T03:27:48;20.77;;;16.33;;
2039;SDS011;1025;42.686;23.350;2023-03-05T03:30:16;22.97;;;16.67;;
2039;SDS011;1025;42.686;23.350;2023-03-05T03:32:43;26.27;;;17.10;;
2039;SDS011;1025;42.686;23.350;2023-03-05T03:35:09;24.73;;;19.10;;
2039;SDS011;1025;42.686;23.350;2023-03-05T03:37:36;22.70;;;16.03;;
2039;SDS011;1025;42.686;23.350;2023-03-05T03:40:03;22.43;;;16.07;;
2039;SDS011;1025;42.686;23.350;2023-03-05T03:42:30;20.57;;;16.20;;
2039;SDS011;1025;42.686;23.350;2023-03-05T03:44:57;20.20;;;14.43;;
2039;SDS011;1025;42.686;23.350;2023-03-05T03:47:26;22.27;;;17.37;;
2039;SDS011;1025;42.686;23.350;2023-03-05T03:49:52;31.23;;;17.67;;
2039;SDS011;1025;42.686;23.350;2023-03-05T03:52:19;22.10;;;15.50;;
2039;SDS011;1025;42.686;23.350;2023-03-05T03:54:47;24.20;;;15.67;;
2039;SDS011;1025;42.686;23.350;2023-03-05T03:57:13;25.60;;;16.47;;
2039;SDS011;1025;42.686;23.350;2023-03-05T03:59:40;22.27;;;16.53;;
2039;SDS011;1025;42.686;23.350;2023-03-05T04:02:06;25.60;;;16.77;;
2039;SDS011;1025;42.686;23.350;2023-03-05T04:04:34;25.70;;;16.10;;
2039;SDS011;1025;42.686;23.350;2023-03-05T04:07:01;27.97;;;17.10;;
2039;SDS011;1025;42.686;23.350;2023-03-05T04:09:27;25.23;;;16.10;;
2039;SDS011;1025;42.686;23.350;2023-03-05T04:11:54;18.30;;;14.73;;
2039;SDS011;1025;42.686;23.350;2023-03-05T04:14:21;19.60;;;16.20;;
2039;SDS011;1025;42.686;23.350;2023-03-05T04:16:47;22.30;;;15.20;;
2039;SDS011;1025;42.686;23.350;2023-03-05T04:19:14;23.90;;;18.10;;
2039;SDS011;1025;42.686;23.350;2023-03-05T04:21:42;30.97;;;15.20;;
2039;SDS011;1025;42.686;23.350;2023-03-05T04:24:08;33.23;;;18.10;;
2039;SDS011;1025;42.686;23.350;2023-03-05T04:26:35;23.93;;;17.00;;
2039;SDS011;1025;42.686;23.350;2023-03-05T04:29:02;25.23;;;17.57;;
2039;SDS011;1025;42.686;23.350;2023-03-05T04:31:28;24.30;;;14.90;;
2039;SDS011;1025;42.686;23.350;2023-03-05T04:33:55;24.20;;;16.40;;
2039;SDS011;1025;42.686;23.350;2023-03-05T04:36:21;24.03;;;17.30;;
2039;SDS011;1025;42.686;23.350;2023-03-05T04:38:49;27.80;;;16.13;;
2039;SDS011;1025;42.686;23.350;2023-03-05T04:41:16;22.47;;;16.67;;
2039;SDS011;1025;42.686;23.350;2023-03-05T04:43:42;23.67;;;17.67;;
2039;SDS011;1025;42.686;23.350;2023-03-05T04:46:09;27.17;;;18.83;;
2039;SDS011;1025;42.686;23.350;2023-03-05T04:48:35;25.30;;;16.03;;
2039;SDS011;1025;42.686;23.350;2023-03-05T04:51:02;23.87;;;15.70;;
2039;SDS011;1025;42.686;23.350;2023-03-05T04:53:29;24.03;;;14.83;;
2039;SDS011;1025;42.686;23.350;2023-03-05T04:55:57;22.93;;;15.27;;
2039;SDS011;1025;42.686;23.350;2023-03-05T04:58:26;23.23;;;16.93;;
2039;SDS011;1025;42.686;23.350;2023-03-05T05:00:52;27.60;;;16.50;;
2039;SDS011;1025;42.686;23.350;2023-03-05T05:03:19;25.73;;;17.10;;
2039;SDS011;1025;42.686;23.350;2023-03-05T05:05:52;26.70;;;17.90;;
2039;SDS011;1025;42.686;23.350;2023-03-05T05:08:18;22.10;;;16.53;;
2039;SDS011;1025;42.686;23.350;2023-03-05T05:10:45;23.60;;;16.77;;
2039;SDS011;1025;42.686;23.350;2023-03-05T05:13:13;30.17;;;19.03;;
2039;SDS011;1025;42.686;23.350;2023-03-05T05:15:39;23.23;;;15.97;;
2039;SDS011;1025;42.686;23.350;2023-03-05T05:18:06;23.83;;;16.97;;
2039;SDS011;1025;42.686;23.350;2023-03-05T05:20:33;23.77;;;16.57;;
2039;SDS011;1025;42.686;23.350;2023-03-05T05:23:00;25.73;;;18.47;;
2039;SDS011;1025;42.686;23.350;2023-03-05T05:25:27;30.00;;;17.93;;
2039;SDS011;1025;42.686;23.350;2023-03-05T05:27:53;22.53;;;17.60;;
2039;SDS011;1025;42.686;23.350;2023-03-05T05:30:22;25.83;;;15.67;;
2039;SDS011;1025;42.686;23.350;2023-03-05T05:32:48;25.17;;;17.20;;
2039;SDS011;1025;42.686;23.350;2023-03-05T05:35:15;22.47;;;16.47;;
2039;SDS011;1025;42.686;23.350;2023-03-05T05:37:42;24.10;;;16.27;;
2039;SDS011;1025;42.686;23.350;2023-03-05T05:40:09;21.93;;;15.27;;
2039;SDS011;1025;42.686;23.350;2023-03-05T05:42:35;20.20;;;15.87;;
2039;SDS011;1025;42.686;23.350;2023-03-05T05:45:02;23.57;;;16.37;;
2039;SDS011;1025;42.686;23.350;2023-03-05T05:47:30;26.67;;;15.37;;
2039;SDS011;1025;42.686;23.350;2023-03-05T05:49:57;22.80;;;16.73;;
2039;SDS011;1025;42.686;23.350;2023-03-05T05:52:23;26.93;;;16.70;;
2039;SDS011;1025;42.686;23.350;2023-03-05T05:54:50;28.13;;;15.87;;
2039;SDS011;1025;42.686;23.350;2023-03-05T05:57:16;20.57;;;14.10;;
2039;SDS011;1025;42.686;23.350;2023-03-05T05:59:43;24.53;;;15.10;;
2039;SDS011;1025;42.686;23.350;2023-03-05T06:02:09;21.90;;;15.87;;
2039;SDS011;1025;42.686;23.350;2023-03-05T06:04:37;29.13;;;17.67;;
2039;SDS011;1025;42.686;23.350;2023-03-05T06:07:04;17.20;;;14.07;;
2039;SDS011;1025;42.686;23.350;2023-03-05T06:09:31;19.47;;;15.50;;
2039;SDS011;1025;42.686;23.350;2023-03-05T06:11:57;19.13;;;13.27;;
2039;SDS011;1025;42.686;23.350;2023-03-05T06:14:24;20.00;;;12.63;;
2039;SDS011;1025;42.686;23.350;2023-03-05T06:16:50;20.27;;;14.80;;
2039;SDS011;1025;42.686;23.350;2023-03-05T06:19:17;21.73;;;14.47;;
2039;SDS011;1025;42.686;23.350;2023-03-05T06:21:45;23.67;;;14.60;;
2039;SDS011;1025;42.686;23.350;2023-03-05T06:24:12;21.93;;;14.03;;
2039;SDS011;1025;42.686;23.350;2023-03-05T06:26:38;21.23;;;15.30;;
2039;SDS011;1025;42.686;23.350;2023-03-05T06:29:05;19.57;;;14.17;;
2039;SDS011;1025;42.686;23.350;2023-03-05T06:31:32;21.37;;;15.30;;
2039;SDS011;1025;42.686;23.350;2023-03-05T06:33:59;17.17;;;12.70;;
2039;SDS011;1025;42.686;23.350;2023-03-05T06:36:26;20.30;;;14.77;;
2039;SDS011;1025;42.686;23.350;2023-03-05T06:38:55;18.50;;;14.03;;
2039;SDS011;1025;42.686;23.350;2023-03-05T06:41:22;27.80;;;15.83;;
2039;SDS011;1025;42.686;23.350;2023-03-05T06:43:49;22.70;;;12.67;;
2039;SDS011;1025;42.686;23.350;2023-03-05T06:46:16;21.80;;;15.10;;
2039;SDS011;1025;42.686;23.350;2023-03-05T06:48:43;23.27;;;15.63;;
2039;SDS011;1025;42.686;23.350;2023-03-05T06:51:14;17.53;;;12.20;;
2039;SDS011;1025;42.686;23.350;2023-03-05T06:53:41;26.07;;;15.20;;
2039;SDS011;1025;42.686;23.350;2023-03-05T06:56:09;17.50;;;13.63;;
2039;SDS011;1025;42.686;23.350;2023-03-05T06:58:42;19.23;;;13.30;;
2039;SDS011;1025;42.686;23.350;2023-03-05T07:01:09;18.90;;;14.30;;
2039;SDS011;1025;42.686;23.350;2023-03-05T07:03:36;22.20;;;15.37;;
2039;SDS011;1025;42.686;23.350;2023-03-05T07:06:03;16.70;;;13.03;;
2039;SDS011;1025;42.686;23.350;2023-03-05T07:08:30;14.47;;;10.60;;
2039;SDS011;1025;42.686;23.350;2023-03-05T07:10:56;22.17;;;14.60;;
2039;SDS011;1025;42.686;23.350;2023-03-05T07:13:24;24.37;;;16.67;;
2039;SDS011;1025;42.686;23.350;2023-03-05T07:15:51;21.73;;;14.53;;
2039;SDS011;1025;42.686;23.350;2023-03-05T07:18:18;21.07;;;13.63;;
2039;SDS011;1025;42.686;23.350;2023-03-05T07:20:44;16.97;;;13.87;;
2039;SDS011;1025;42.686;23.350;2023-03-05T07:23:11;20.63;;;15.90;;
2039;SDS011;1025;42.686;23.350;2023-03-05T07:25:37;27.07;;;18.00;;
2039;SDS011;1025;42.686;23.350;2023-03-05T07:28:04;19.60;;;14.17;;
2039;SDS011;1025;42.686;23.350;2023-03-05T07:30:33;16.93;;;12.93;;
2039;SDS011;1025;42.686;23.350;2023-03-05T07:32:59;22.10;;;15.77;;
2039;SDS011;1025;42.686;23.350;2023-03-05T07:35:26;22.40;;;16.47;;
2039;SDS011;1025;42.686;23.350;2023-03-05T07:37:52;25.00;;;17.27;;
2039;SDS011;1025;42.686;23.350;2023-03-05T07:40:20;27.07;;;15.93;;
2039;SDS011;1025;42.686;23.350;2023-03-05T07:42:46;22.90;;;15.20;;
2039;SDS011;1025;42.686;23.350;2023-03-05T07:45:13;16.97;;;14.00;;
2039;SDS011;1025;42.686;23.350;2023-03-05T07:47:41;26.30;;;17.10;;
2039;SDS011;1025;42.686;23.350;2023-03-05T07:50:08;19.33;;;15.57;;
2039;SDS011;1025;42.686;23.350;2023-03-05T07:52:34;20.40;;;14.50;;
2039;SDS011;1025;42.686;23.350;2023-03-05T07:55:01;26.83;;;19.10;;
2039;SDS011;1025;42.686;23.350;2023-03-05T07:57:28;20.97;;;17.00;;
2039;SDS011;1025;42.686;23.350;2023-03-05T07:59:54;22.97;;;16.23;;
2039;SDS011;1025;42.686;23.350;2023-03-05T08:02:21;24.50;;;18.43;;
2039;SDS011;1025;42.686;23.350;2023-03-05T08:04:49;25.10;;;15.90;;
2039;SDS011;1025;42.686;23.350;2023-03-05T08:07:15;23.27;;;16.40;;
2039;SDS011;1025;42.686;23.350;2023-03-05T08:09:42;18.90;;;16.83;;
2039;SDS011;1025;42.686;23.350;2023-03-05T08:12:09;28.63;;;16.67;;
2039;SDS011;1025;42.686;23.350;2023-03-05T08:14:35;26.83;;;18.00;;
2039;SDS011;1025;42.686;23.350;2023-03-05T08:17:02;25.13;;;16.90;;
2039;SDS011;1025;42.686;23.350;2023-03-05T08:19:29;24.17;;;17.47;;
2039;SDS011;1025;42.686;23.350;2023-03-05T08:21:57;21.27;;;16.80;;
2039;SDS011;1025;42.686;23.350;2023-03-05T08:24:24;25.03;;;17.93;;
2039;SDS011;1025;42.686;23.350;2023-03-05T08:26:53;22.60;;;17.33;;
2039;SDS011;1025;42.686;23.350;2023-03-05T08:29:20;26.67;;;18.27;;
2039;SDS011;1025;42.686;23.350;2023-03-05T08:31:47;20.93;;;18.73;;
2039;SDS011;1025;42.686;23.350;2023-03-05T08:34:14;20.30;;;16.57;;
2039;SDS011;1025;42.686;23.350;2023-03-05T08:36:41;26.70;;;19.87;;
2039;SDS011;1025;42.686;23.350;2023-03-05T08:39:09;24.97;;;16.50;;
2039;SDS011;1025;42.686;23.350;2023-03-05T08:41:35;25.13;;;17.23;;
2039;SDS011;1025;42.686;23.350;2023-03-05T08:44:02;23.23;;;17.10;;
2039;SDS011;1025;42.686;23.350;2023-03-05T08:46:29;25.90;;;18.10;;
2039;SDS011;1025;42.686;23.350;2023-03-05T08:48:55;24.37;;;17.77;;
2039;SDS011;1025;42.686;23.350;2023-03-05T08:51:23;29.93;;;20.40;;
2039;SDS011;1025;42.686;23.350;2023-03-05T08:53:51;27.40;;;17.53;;
2039;SDS011;1025;42.686;23.350;2023-03-05T08:56:19;20.33;;;16.27;;
2039;SDS011;1025;42.686;23.350;2023-03-05T08:58:46;21.27;;;17.43;;
2039;SDS011;1025;42.686;23.350;2023-03-05T09:01:13;24.40;;;18.17;;
2039;SDS011;1025;42.686;23.350;2023-03-05T09:03:39;20.53;;;16.00;;
2039;SDS011;1025;42.686;23.350;2023-03-05T09:06:07;21.60;;;16.73;;
2039;SDS011;1025;42.686;23.350;2023-03-05T09:08:34;28.63;;;18.10;;
2039;SDS011;1025;42.686;23.350;2023-03-05T09:11:01;23.53;;;18.30;;
2039;SDS011;1025;42.686;23.350;2023-03-05T09:13:29;21.30;;;15.60;;
2039;SDS011;1025;42.686;23.350;2023-03-05T09:15:56;18.60;;;15.83;;
2039;SDS011;1025;42.686;23.350;2023-03-05T09:18:23;24.03;;;16.83;;
2039;SDS011;1025;42.686;23.350;2023-03-05T09:20:50;29.60;;;16.03;;
2039;SDS011;1025;42.686;23.350;2023-03-05T09:23:16;18.50;;;16.07;;
2039;SDS011;1025;42.686;23.350;2023-03-05T09:25:43;19.53;;;15.57;;
2039;SDS011;1025;42.686;23.350;2023-03-05T09:28:10;22.70;;;14.97;;
2039;SDS011;1025;42.686;23.350;2023-03-05T09:30:38;23.50;;;16.80;;
2039;SDS011;1025;42.686;23.350;2023-03-05T09:33:04;20.30;;;17.17;;
2039;SDS011;1025;42.686;23.350;2023-03-05T09:35:33;19.70;;;15.33;;
2039;SDS011;1025;42.686;23.350;2023-03-05T09:38:00;22.50;;;15.73;;
2039;SDS011;1025;42.686;23.350;2023-03-05T09:40:26;21.40;;;14.70;;
2039;SDS011;1025;42.686;23.350;2023-03-05T09:42:59;18.80;;;13.30;;
2039;SDS011;1025;42.686;23.350;2023-03-05T09:45:28;18.43;;;15.03;;
2039;SDS011;1025;42.686;23.350;2023-03-05T09:48:00;18.23;;;14.93;;
2039;SDS011;1025;42.686;23.350;2023-03-05T09:50:34;22.60;;;13.83;;
2039;SDS011;1025;42.686;23.350;2023-03-05T09:53:03;23.37;;;16.07;;
2039;SDS011;1025;42.686;23.350;2023-03-05T09:55:32;19.50;;;14.30;;
2039;SDS011;1025;42.686;23.350;2023-03-05T09:58:02;16.17;;;14.47;;
2039;SDS011;1025;42.686;23.350;2023-03-05T10:00:31;15.07;;;13.47;;
2039;SDS011;1025;42.686;23.350;2023-03-05T10:03:03;22.60;;;14.50;;
2039;SDS011;1025;42.686;23.350;2023-03-05T10:05:35;15.37;;;13.73;;
2039;SDS011;1025;42.686;23.350;2023-03-05T10:08:09;17.70;;;14.37;;
2039;SDS011;1025;42.686;23.350;2023-03-05T10:10:38;18.93;;;14.50;;
2039;SDS011;1025;42.686;23.350;2023-03-05T10:13:09;17.93;;;14.80;;
2039;SDS011;1025;42.686;23.350;2023-03-05T10:15:39;15.73;;;14.03;;
2039;SDS011;1025;42.686;23.350;2023-03-05T10:18:12;25.97;;;16.37;;
2039;SDS011;1025;42.686;23.350;2023-03-05T10:20:48;16.80;;;14.23;;
2039;SDS011;1025;42.686;23.350;2023-03-05T10:26:09;20.47;;;15.93;;
2039;SDS011;1025;42.686;23.350;2023-03-05T10:28:41;16.97;;;14.00;;
2039;SDS011;1025;42.686;23.350;2023-03-05T10:31:29;15.63;;;13.40;;
2039;SDS011;1025;42.686;23.350;2023-03-05T10:34:06;15.60;;;11.73;;
2039;SDS011;1025;42.686;23.350;2023-03-05T10:36:41;16.77;;;15.10;;
2039;SDS011;1025;42.686;23.350;2023-03-05T10:39:15;16.63;;;14.27;;
2039;SDS011;1025;42.686;23.350;2023-03-05T10:41:54;16.10;;;13.60;;
2039;SDS011;1025;42.686;23.350;2023-03-05T10:44:28;13.93;;;12.53;;
2039;SDS011;1025;42.686;23.350;2023-03-05T10:46:58;18.60;;;13.63;;
2039;SDS011;1025;42.686;23.350;2023-03-05T10:49:27;18.70;;;13.10;;
2039;SDS011;1025;42.686;23.350;2023-03-05T10:51:56;15.07;;;12.30;;
2039;SDS011;1025;42.686;23.350;2023-03-05T10:54:25;15.20;;;13.70;;
2039;SDS011;1025;42.686;23.350;2023-03-05T10:57:03;14.97;;;12.23;;
2039;SDS011;1025;42.686;23.350;2023-03-05T10:59:30;15.67;;;12.43;;
2039;SDS011;1025;42.686;23.350;2023-03-05T11:02:01;13.10;;;11.80;;
2039;SDS011;1025;42.686;23.350;2023-03-05T11:04:32;14.03;;;11.23;;
2039;SDS011;1025;42.686;23.350;2023-03-05T11:07:00;12.30;;;11.10;;
2039;SDS011;1025;42.686;23.350;2023-03-05T11:09:30;12.57;;;11.27;;
2039;SDS011;1025;42.686;23.350;2023-03-05T11:12:10;15.93;;;12.50;;
2039;SDS011;1025;42.686;23.350;2023-03-05T11:14:37;13.30;;;11.13;;
2039;SDS011;1025;42.686;23.350;2023-03-05T11:19:47;10.77;;;9.77;;
2039;SDS011;1025;42.686;23.350;2023-03-05T11:22:14;14.73;;;11.97;;
2039;SDS011;1025;42.686;23.350;2023-03-05T11:24:41;16.67;;;12.10;;
2039;SDS011;1025;42.686;23.350;2023-03-05T11:27:21;14.63;;;10.80;;
2039;SDS011;1025;42.686;23.350;2023-03-05T11:29:48;15.73;;;11.33;;
2039;SDS011;1025;42.686;23.350;2023-03-05T11:32:18;14.80;;;10.73;;
2039;SDS011;1025;42.686;23.350;2023-03-05T11:34:46;13.50;;;12.10;;
2039;SDS011;1025;42.686;23.350;2023-03-05T11:37:18;16.10;;;13.00;;
2039;SDS011;1025;42.686;23.350;2023-03-05T11:39:46;15.73;;;11.63;;
2039;SDS011;1025;42.686;23.350;2023-03-05T11:42:15;14.30;;;12.77;;
2039;SDS011;1025;42.686;23.350;2023-03-05T11:44:44;16.10;;;13.60;;
2039;SDS011;1025;42.686;23.350;2023-03-05T11:47:15;13.43;;;12.10;;
2039;SDS011;1025;42.686;23.350;2023-03-05T11:49:44;14.37;;;12.60;;
2039;SDS011;1025;42.686;23.350;2023-03-05T11:52:13;14.10;;;11.47;;
2039;SDS011;1025;42.686;23.350;2023-03-05T11:54:43;15.10;;;12.00;;
2039;SDS011;1025;42.686;23.350;2023-03-05T11:57:13;11.63;;;9.23;;
2039;SDS011;1025;42.686;23.350;2023-03-05T11:59:41;11.27;;;10.17;;
2039;SDS011;1025;42.686;23.350;2023-03-05T12:02:13;37.37;;;25.57;;
2039;SDS011;1025;42.686;23.350;2023-03-05T12:04:41;12.27;;;11.07;;
2039;SDS011;1025;42.686;23.350;2023-03-05T12:07:08;12.53;;;10.60;;
2039;SDS011;1025;42.686;23.350;2023-03-05T12:09:38;12.53;;;11.27;;
2039;SDS011;1025;42.686;23.350;2023-03-05T12:12:06;15.43;;;10.40;;
2039;SDS011;1025;42.686;23.350;2023-03-05T12:14:35;15.57;;;11.77;;
2039;SDS011;1025;42.686;23.350;2023-03-05T12:17:06;11.30;;;10.20;;
2039;SDS011;1025;42.686;23.350;2023-03-05T12:19:39;11.83;;;9.47;;
2039;SDS011;1025;42.686;23.350;2023-03-05T12:22:14;15.27;;;11.20;;
2039;SDS011;1025;42.686;23.350;2023-03-05T12:24:42;14.03;;;11.07;;
2039;SDS011;1025;42.686;23.350;2023-03-05T12:27:10;13.03;;;11.30;;
2039;SDS011;1025;42.686;23.350;2023-03-05T12:29:42;12.03;;;10.93;;
2039;SDS011;1025;42.686;23.350;2023-03-05T12:34:55;13.07;;;10.70;;
2039;SDS011;1025;42.686;23.350;2023-03-05T12:40:19;10.67;;;9.53;;
2039;SDS011;1025;42.686;23.350;2023-03-05T12:42:50;14.33;;;11.50;;
2039;SDS011;1025;42.686;23.350;2023-03-05T12:45:27;12.73;;;9.73;;
2039;SDS011;1025;42.686;23.350;2023-03-05T12:50:49;11.10;;;9.90;;
2039;SDS011;1025;42.686;23.350;2023-03-05T12:53:19;11.63;;;10.47;;
2039;SDS011;1025;42.686;23.350;2023-03-05T12:55:52;14.87;;;11.80;;
2039;SDS011;1025;42.686;23.350;2023-03-05T12:58:24;9.80;;;8.90;;
2039;SDS011;1025;42.686;23.350;2023-03-05T13:00:54;16.80;;;10.23;;
2039;SDS011;1025;42.686;23.350;2023-03-05T13:03:26;12.27;;;10.97;;
2039;SDS011;1025;42.686;23.350;2023-03-05T13:05:55;19.50;;;12.27;;
2039;SDS011;1025;42.686;23.350;2023-03-05T13:08:23;15.40;;;12.17;;
2039;SDS011;1025;42.686;23.350;2023-03-05T13:10:52;13.17;;;11.13;;
2039;SDS011;1025;42.686;23.350;2023-03-05T13:13:19;15.20;;;11.70;;
2039;SDS011;1025;42.686;23.350;2023-03-05T13:15:46;14.30;;;11.77;;
2039;SDS011;1025;42.686;23.350;2023-03-05T13:18:15;13.13;;;9.80;;
2039;SDS011;1025;42.686;23.350;2023-03-05T13:20:44;11.70;;;10.50;;
2039;SDS011;1025;42.686;23.350;2023-03-05T13:23:16;13.43;;;10.10;;
2039;SDS011;1025;42.686;23.350;2023-03-05T13:25:45;15.03;;;10.83;;
2039;SDS011;1025;42.686;23.350;2023-03-05T13:28:22;12.30;;;10.90;;
2039;SDS011;1025;42.686;23.350;2023-03-05T13:30:50;15.53;;;10.87;;
2039;SDS011;1025;42.686;23.350;2023-03-05T13:33:18;14.33;;;10.30;;
2039;SDS011;1025;42.686;23.350;2023-03-05T13:35:45;15.77;;;11.17;;
2039;SDS011;1025;42.686;23.350;2023-03-05T13:38:15;14.70;;;11.03;;
2039;SDS011;1025;42.686;23.350;2023-03-05T13:40:54;12.33;;;10.20;;
2039;SDS011;1025;42.686;23.350;2023-03-05T13:43:27;14.83;;;11.07;;
2039;SDS011;1025;42.686;23.350;2023-03-05T13:45:54;12.93;;;11.60;;
2039;SDS011;1025;42.686;23.350;2023-03-05T13:48:22;12.30;;;11.03;;
2039;SDS011;1025;42.686;23.350;2023-03-05T13:50:52;14.23;;;11.43;;
2039;SDS011;1025;42.686;23.350;2023-03-05T13:53:19;13.17;;;10.40;;
2039;SDS011;1025;42.686;23.350;2023-03-05T13:55:48;10.90;;;9.80;;
2039;SDS011;1025;42.686;23.350;2023-03-05T14:01:08;13.67;;;12.03;;
2039;SDS011;1025;42.686;23.350;2023-03-05T14:03:37;14.33;;;12.20;;
2039;SDS011;1025;42.686;23.350;2023-03-05T14:06:05;13.77;;;12.33;;
2039;SDS011;1025;42.686;23.350;2023-03-05T14:08:34;19.60;;;12.97;;
2039;SDS011;1025;42.686;23.350;2023-03-05T14:11:10;17.93;;;11.47;;
2039;SDS011;1025;42.686;23.350;2023-03-05T14:13:37;13.43;;;11.57;;
2039;SDS011;1025;42.686;23.350;2023-03-05T14:16:06;16.30;;;12.30;;
2039;SDS011;1025;42.686;23.350;2023-03-05T14:18:33;19.23;;;12.40;;
2039;SDS011;1025;42.686;23.350;2023-03-05T14:21:01;15.43;;;12.00;;
2039;SDS011;1025;42.686;23.350;2023-03-05T14:23:38;24.80;;;11.93;;
2039;SDS011;1025;42.686;23.350;2023-03-05T14:28:59;14.00;;;10.80;;
2039;SDS011;1025;42.686;23.350;2023-03-05T14:31:28;12.50;;;10.93;;
2039;SDS011;1025;42.686;23.350;2023-03-05T14:33:58;15.50;;;12.97;;
2039;SDS011;1025;42.686;23.350;2023-03-05T14:36:26;13.77;;;11.33;;
2039;SDS011;1025;42.686;23.350;2023-03-05T14:38:53;17.33;;;13.87;;
2039;SDS011;1025;42.686;23.350;2023-03-05T14:41:26;12.57;;;11.27;;
2039;SDS011;1025;42.686;23.350;2023-03-05T14:43:56;22.70;;;12.40;;
2039;SDS011;1025;42.686;23.350;2023-03-05T14:46:23;18.50;;;12.20;;
2039;SDS011;1025;42.686;23.350;2023-03-05T14:48:51;14.47;;;11.17;;
2039;SDS011;1025;42.686;23.350;2023-03-05T14:51:18;15.93;;;13.90;;
2039;SDS011;1025;42.686;23.350;2023-03-05T14:53:46;20.30;;;13.40;;
2039;SDS011;1025;42.686;23.350;2023-03-05T14:56:15;17.37;;;12.70;;
2039;SDS011;1025;42.686;23.350;2023-03-05T14:58:43;16.83;;;12.30;;
2039;SDS011;1025;42.686;23.350;2023-03-05T15:01:10;16.40;;;14.00;;